Time;durP1;ratioP1;P1;durP2;ratioP2;P2;SDS_P1;SDS_P2;PMS_P1;PMS_P2;Temp;Humidity;BMP_temperature;BMP_pressure;BME280_temperature;BME280_humidity;BME280_pressure;Samples;Min_cycle;Max_cycle;Signal;HPM_P1;HPM_P2
2023/06/25 00:01:48;;;;;;;8.80;7.85;;;;;;;;;;6195045;28;20049;-79
2023/06/25 00:04:50;;;;;;;9.07;7.72;;;;;;;;;;6193030;28;20054;-79
2023/06/25 00:07:51;;;;;;;9.10;7.93;;;;;;;;;;6184314;28;20210;-79
2023/06/25 00:10:54;;;;;;;9.60;7.63;;;;;;;;;;6197444;28;20049;-79
2023/06/25 00:13:55;;;;;;;8.18;7.35;;;;;;;;;;6198580;28;20050;-79
2023/06/25 00:16:57;;;;;;;9.75;8.05;;;;;;;;;;6167748;28;20276;-79
2023/06/25 00:19:59;;;;;;;10.37;7.43;;;;;;;;;;6182480;28;20141;-79
2023/06/25 00:23:01;;;;;;;9.23;8.00;;;;;;;;;;6197698;28;20035;-79
2023/06/25 00:26:08;;;;;;;8.50;7.35;;;;;;;;;;6205515;28;20530;-79
2023/06/25 00:29:10;;;;;;;10.82;7.88;;;;;;;;;;6208430;28;20050;-79
2023/06/25 00:32:17;;;;;;;9.40;7.53;;;;;;;;;;6182073;28;20058;-79
2023/06/25 00:35:19;;;;;;;8.32;7.45;;;;;;;;;;6195823;28;20137;-79
2023/06/25 00:38:21;;;;;;;8.73;7.60;;;;;;;;;;6204912;28;20041;-79
2023/06/25 00:41:26;;;;;;;8.93;7.97;;;;;;;;;;6187820;28;20061;-79
2023/06/25 00:44:28;;;;;;;9.93;8.13;;;;;;;;;;6181981;28;20033;-79
2023/06/25 00:47:30;;;;;;;8.90;7.65;;;;;;;;;;6194082;28;20080;-79
2023/06/25 00:50:32;;;;;;;9.27;7.57;;;;;;;;;;6200740;28;20531;-79
2023/06/25 00:53:37;;;;;;;8.63;7.40;;;;;;;;;;6182593;28;20136;-79
2023/06/25 00:56:38;;;;;;;9.25;8.13;;;;;;;;;;6187362;28;20164;-79
2023/06/25 00:59:42;;;;;;;9.60;7.93;;;;;;;;;;6186261;28;20172;-79
2023/06/25 01:03:09;;;;;;;10.63;8.23;;;;;;;;;;6203329;28;20041;-79
2023/06/25 01:06:29;;;;;;;9.38;7.93;;;;;;;;;;6180338;28;20053;-79
2023/06/25 01:09:31;;;;;;;9.75;7.97;;;;;;;;;;6204416;28;20444;-79
2023/06/25 01:12:33;;;;;;;9.95;8.40;;;;;;;;;;6187180;28;20046;-80
2023/06/25 01:15:35;;;;;;;10.13;8.40;;;;;;;;;;6203962;28;20045;-79
2023/06/25 01:18:39;;;;;;;11.70;7.95;;;;;;;;;;6178733;28;20043;-80
2023/06/25 01:21:52;;;;;;;9.93;8.13;;;;;;;;;;6195147;28;20669;-79
2023/06/25 01:24:54;;;;;;;9.93;8.30;;;;;;;;;;6183305;28;20147;-79
2023/06/25 01:27:56;;;;;;;9.15;7.95;;;;;;;;;;6182403;28;20043;-79
2023/06/25 01:30:58;;;;;;;10.88;7.85;;;;;;;;;;6182597;28;20054;-79
2023/06/25 01:34:00;;;;;;;9.77;8.20;;;;;;;;;;6203199;28;20146;-79
2023/06/25 01:37:02;;;;;;;10.00;8.13;;;;;;;;;;6184980;28;20042;-79
2023/06/25 01:40:07;;;;;;;10.07;8.15;;;;;;;;;;6180671;28;20049;-79
2023/06/25 01:43:09;;;;;;;9.45;8.18;;;;;;;;;;6198001;28;20049;-79
2023/06/25 01:46:11;;;;;;;9.20;7.55;;;;;;;;;;6190198;28;20822;-79
2023/06/25 01:49:12;;;;;;;10.02;8.27;;;;;;;;;;6194250;28;20046;-79
2023/06/25 01:52:31;;;;;;;11.63;9.00;;;;;;;;;;6178325;28;20034;-79
2023/06/25 01:55:35;;;;;;;11.82;8.70;;;;;;;;;;6183252;28;20049;-79
2023/06/25 01:58:37;;;;;;;11.27;9.05;;;;;;;;;;6186037;28;20061;-79
2023/06/25 02:01:40;;;;;;;10.85;8.32;;;;;;;;;;6190449;28;20045;-78
2023/06/25 02:04:42;;;;;;;9.85;8.48;;;;;;;;;;6203695;28;20407;-78
2023/06/25 02:07:43;;;;;;;11.10;9.30;;;;;;;;;;6183802;28;20060;-79
2023/06/25 02:10:45;;;;;;;10.82;9.27;;;;;;;;;;6177284;28;20043;-79
2023/06/25 02:13:47;;;;;;;12.60;8.77;;;;;;;;;;6191273;28;20053;-79
2023/06/25 02:16:49;;;;;;;12.07;9.15;;;;;;;;;;6178592;28;20049;-79
2023/06/25 02:19:50;;;;;;;11.68;8.55;;;;;;;;;;6202655;28;20045;-79
2023/06/25 02:22:52;;;;;;;12.30;8.75;;;;;;;;;;6200885;28;20123;-79
2023/06/25 02:25:54;;;;;;;10.52;8.32;;;;;;;;;;6207480;28;20042;-79
2023/06/25 02:28:55;;;;;;;10.35;8.48;;;;;;;;;;6194444;28;20053;-79
2023/06/25 02:31:58;;;;;;;9.68;8.30;;;;;;;;;;6194326;28;20046;-79
2023/06/25 02:35:00;;;;;;;11.23;8.57;;;;;;;;;;6180639;28;20505;-79
2023/06/25 02:38:02;;;;;;;12.20;9.05;;;;;;;;;;6208384;28;20423;-79
2023/06/25 02:41:04;;;;;;;12.10;8.40;;;;;;;;;;6204548;28;20053;-78
2023/06/25 02:44:06;;;;;;;11.35;8.38;;;;;;;;;;6175691;28;20057;-79
2023/06/25 02:47:07;;;;;;;9.18;7.90;;;;;;;;;;6180681;28;20043;-80
2023/06/25 02:50:09;;;;;;;9.10;7.97;;;;;;;;;;6199742;28;20042;-79
2023/06/25 02:53:12;;;;;;;11.20;9.38;;;;;;;;;;6199265;28;20076;-80
2023/06/25 02:56:13;;;;;;;10.33;8.47;;;;;;;;;;6189703;28;20050;-80
2023/06/25 02:59:15;;;;;;;11.18;8.70;;;;;;;;;;6206135;28;20059;-80
2023/06/25 03:02:17;;;;;;;12.57;8.57;;;;;;;;;;6185957;28;20038;-79
2023/06/25 03:05:19;;;;;;;9.77;8.23;;;;;;;;;;6190227;28;20830;-79
2023/06/25 03:08:21;;;;;;;9.68;7.93;;;;;;;;;;6190232;28;20045;-79
2023/06/25 03:11:23;;;;;;;10.27;8.45;;;;;;;;;;6215601;28;20048;-79
2023/06/25 03:14:25;;;;;;;9.63;7.72;;;;;;;;;;6188314;28;20056;-80
2023/06/25 03:17:35;;;;;;;10.07;8.00;;;;;;;;;;6171609;28;20056;-79
2023/06/25 03:20:37;;;;;;;10.55;8.70;;;;;;;;;;6200840;28;20173;-78
2023/06/25 03:23:39;;;;;;;11.00;9.65;;;;;;;;;;6200318;28;20042;-79
2023/06/25 03:26:41;;;;;;;12.35;9.30;;;;;;;;;;6205272;28;20050;-79
2023/06/25 03:29:43;;;;;;;11.18;8.82;;;;;;;;;;6207370;28;20681;-78
2023/06/25 03:32:44;;;;;;;10.15;9.05;;;;;;;;;;6198331;28;22291;-78
2023/06/25 03:35:46;;;;;;;11.13;8.35;;;;;;;;;;6186120;28;20050;-79
2023/06/25 03:38:48;;;;;;;12.75;9.32;;;;;;;;;;6181346;28;20046;-79
2023/06/25 03:41:50;;;;;;;10.18;8.77;;;;;;;;;;6184650;28;20045;-78
2023/06/25 03:44:54;;;;;;;9.93;8.65;;;;;;;;;;6186329;28;20054;-79
2023/06/25 03:48:00;;;;;;;8.73;7.75;;;;;;;;;;6184633;28;20057;-78
2023/06/25 03:51:01;;;;;;;10.40;8.43;;;;;;;;;;6170159;28;20053;-79
2023/06/25 03:54:03;;;;;;;10.45;8.38;;;;;;;;;;6181675;28;20073;-78
2023/06/25 03:57:05;;;;;;;9.57;8.25;;;;;;;;;;6186726;28;20108;-79
2023/06/25 04:00:07;;;;;;;10.57;8.43;;;;;;;;;;6193663;28;20089;-78
2023/06/25 04:03:13;;;;;;;10.05;8.90;;;;;;;;;;6194012;28;20057;-78
2023/06/25 04:06:15;;;;;;;28.60;15.40;;;;;;;;;;6196811;28;20045;-78
2023/06/25 04:09:18;;;;;;;;;;;;;;;;;;6183035;28;20076;-78
2023/06/25 04:12:20;;;;;;;14.70;9.35;;;;;;;;;;6197188;28;19972;-78
2023/06/25 04:15:22;;;;;;;10.27;8.15;;;;;;;;;;6199151;28;20049;-78
2023/06/25 04:18:24;;;;;;;9.50;8.18;;;;;;;;;;6179233;28;20531;-79
2023/06/25 04:21:25;;;;;;;10.35;7.85;;;;;;;;;;6178760;28;20041;-79
2023/06/25 04:24:27;;;;;;;10.25;8.48;;;;;;;;;;6164459;28;20057;-79
2023/06/25 04:27:29;;;;;;;9.70;8.63;;;;;;;;;;6187228;28;20099;-79
2023/06/25 04:30:31;;;;;;;10.02;8.98;;;;;;;;;;6184973;28;20064;-79
2023/06/25 04:33:40;;;;;;;12.38;9.23;;;;;;;;;;6187076;28;20042;-79
2023/06/25 04:36:44;;;;;;;14.95;9.52;;;;;;;;;;6171113;28;20074;-78
2023/06/25 04:39:46;;;;;;;13.60;9.75;;;;;;;;;;6181714;28;20044;-79
2023/06/25 04:42:47;;;;;;;11.02;9.63;;;;;;;;;;6198144;28;20045;-79
2023/06/25 04:45:49;;;;;;;12.38;9.95;;;;;;;;;;6172930;28;20051;-79
2023/06/25 04:48:51;;;;;;;13.80;10.00;;;;;;;;;;6193069;28;20054;-79
2023/06/25 04:51:53;;;;;;;14.10;10.50;;;;;;;;;;6175835;28;20415;-79
2023/06/25 04:54:55;;;;;;;11.23;8.77;;;;;;;;;;6194971;28;20049;-79
2023/06/25 04:57:57;;;;;;;11.52;8.82;;;;;;;;;;6184939;28;20151;-79
2023/06/25 05:00:58;;;;;;;9.35;8.45;;;;;;;;;;6179093;28;20125;-79
2023/06/25 05:04:00;;;;;;;12.77;10.05;;;;;;;;;;6194227;28;20435;-79
2023/06/25 05:07:02;;;;;;;13.32;9.73;;;;;;;;;;6177045;28;20057;-78
2023/06/25 05:10:04;;;;;;;11.35;9.43;;;;;;;;;;6202109;28;20046;-79
2023/06/25 05:13:06;;;;;;;10.73;9.30;;;;;;;;;;6184143;28;20054;-79
2023/06/25 05:16:08;;;;;;;12.23;9.65;;;;;;;;;;6198413;28;20096;-79
2023/06/25 05:19:10;;;;;;;15.10;11.27;;;;;;;;;;6205988;28;20053;-78
2023/06/25 05:22:11;;;;;;;10.93;9.82;;;;;;;;;;6192904;28;20049;-79
2023/06/25 05:25:13;;;;;;;13.73;10.07;;;;;;;;;;6209108;28;20712;-79
2023/06/25 05:28:15;;;;;;;11.60;9.65;;;;;;;;;;6203662;28;20053;-79
2023/06/25 05:31:16;;;;;;;14.02;10.45;;;;;;;;;;6202980;28;20551;-79
2023/06/25 05:34:18;;;;;;;11.35;10.15;;;;;;;;;;6202506;28;20073;-79
2023/06/25 05:37:20;;;;;;;10.45;9.40;;;;;;;;;;6202782;28;20065;-80
2023/06/25 05:40:26;;;;;;;12.05;10.35;;;;;;;;;;6205186;28;20050;-79
2023/06/25 05:43:28;;;;;;;11.48;9.68;;;;;;;;;;6190829;28;20053;-78
2023/06/25 05:46:29;;;;;;;11.13;8.88;;;;;;;;;;6199280;28;20553;-78
2023/06/25 05:49:31;;;;;;;11.25;9.32;;;;;;;;;;6198368;28;20038;-79
2023/06/25 05:52:33;;;;;;;12.88;9.00;;;;;;;;;;6198502;28;20077;-79
2023/06/25 05:55:35;;;;;;;10.02;9.02;;;;;;;;;;6205561;28;20524;-78
2023/06/25 05:58:37;;;;;;;10.77;8.53;;;;;;;;;;6203030;28;20054;-79
2023/06/25 06:01:38;;;;;;;9.30;8.30;;;;;;;;;;6194070;28;20050;-79
2023/06/25 06:04:40;;;;;;;11.70;9.00;;;;;;;;;;6203869;28;20057;-78
2023/06/25 06:07:42;;;;;;;9.70;8.45;;;;;;;;;;6204797;28;20061;-78
2023/06/25 06:10:43;;;;;;;11.07;8.52;;;;;;;;;;6184500;28;20116;-79
2023/06/25 06:13:45;;;;;;;10.38;8.32;;;;;;;;;;6171173;28;20129;-79
2023/06/25 06:16:47;;;;;;;10.45;8.77;;;;;;;;;;6202769;28;20539;-79
2023/06/25 06:19:49;;;;;;;10.67;8.50;;;;;;;;;;6189661;28;20049;-79
2023/06/25 06:22:51;;;;;;;9.87;8.47;;;;;;;;;;6189157;28;20520;-79
2023/06/25 06:25:53;;;;;;;8.63;7.67;;;;;;;;;;6202178;28;20430;-79
2023/06/25 06:28:55;;;;;;;8.73;7.83;;;;;;;;;;6188810;28;20058;-79
2023/06/25 06:31:57;;;;;;;8.88;7.53;;;;;;;;;;6195847;28;20050;-80
2023/06/25 06:34:59;;;;;;;10.85;8.07;;;;;;;;;;6189719;28;20117;-79
2023/06/25 06:38:01;;;;;;;9.25;7.68;;;;;;;;;;6205305;28;20411;-80
2023/06/25 06:41:03;;;;;;;9.35;7.93;;;;;;;;;;6189704;28;20520;-79
2023/06/25 06:44:12;;;;;;;8.52;7.63;;;;;;;;;;6200547;28;20085;-79
2023/06/25 06:47:14;;;;;;;8.43;7.55;;;;;;;;;;6177267;28;20054;-79
2023/06/25 06:50:16;;;;;;;8.60;7.60;;;;;;;;;;6200631;28;20042;-79
2023/06/25 06:53:18;;;;;;;8.67;7.37;;;;;;;;;;6182574;28;20523;-79
2023/06/25 06:56:19;;;;;;;9.13;6.57;;;;;;;;;;6189997;28;20450;-81
2023/06/25 06:59:21;;;;;;;8.23;6.25;;;;;;;;;;6185314;28;20073;-81
2023/06/25 07:02:23;;;;;;;7.72;6.10;;;;;;;;;;6182171;28;20065;-79
2023/06/25 07:05:25;;;;;;;9.30;6.77;;;;;;;;;;6199797;28;20453;-80
2023/06/25 07:08:26;;;;;;;8.05;6.47;;;;;;;;;;6205866;28;20115;-80
2023/06/25 07:11:28;;;;;;;6.97;5.78;;;;;;;;;;6204689;28;20144;-81
2023/06/25 07:14:30;;;;;;;7.60;6.28;;;;;;;;;;6202298;28;20046;-79
2023/06/25 07:17:31;;;;;;;7.53;6.05;;;;;;;;;;6207530;28;20113;-80
2023/06/25 07:20:33;;;;;;;6.80;5.82;;;;;;;;;;6194082;28;20042;-81
2023/06/25 07:23:36;;;;;;;7.35;5.63;;;;;;;;;;6202423;28;20057;-83
2023/06/25 07:26:37;;;;;;;6.90;5.68;;;;;;;;;;6206624;28;20065;-81
2023/06/25 07:29:39;;;;;;;6.95;5.88;;;;;;;;;;6191854;28;20412;-80
2023/06/25 07:32:41;;;;;;;6.60;5.97;;;;;;;;;;6168087;28;20043;-82
2023/06/25 07:35:43;;;;;;;7.07;5.67;;;;;;;;;;6204150;28;20411;-81
2023/06/25 07:38:45;;;;;;;5.80;5.30;;;;;;;;;;6204068;28;20563;-82
2023/06/25 07:41:46;;;;;;;5.72;5.18;;;;;;;;;;6208133;28;20057;-81
2023/06/25 07:44:48;;;;;;;6.03;5.20;;;;;;;;;;6186063;28;20100;-83
2023/06/25 07:47:57;;;;;;;5.88;5.20;;;;;;;;;;6202648;28;20123;-80
2023/06/25 07:50:58;;;;;;;5.93;5.33;;;;;;;;;;6192791;28;20050;-81
2023/06/25 07:54:00;;;;;;;5.80;5.20;;;;;;;;;;6174749;28;20449;-82
2023/06/25 07:57:02;;;;;;;5.33;4.80;;;;;;;;;;6173529;28;20497;-81
2023/06/25 08:00:05;;;;;;;5.30;4.80;;;;;;;;;;6210094;28;20049;-81
2023/06/25 08:03:13;;;;;;;4.65;4.25;;;;;;;;;;6194699;28;20600;-76
2023/06/25 08:06:15;;;;;;;5.05;4.45;;;;;;;;;;6184586;28;20045;-76
2023/06/25 08:09:17;;;;;;;4.47;3.90;;;;;;;;;;6196930;28;20049;-76
2023/06/25 08:12:18;;;;;;;5.47;4.27;;;;;;;;;;6198899;28;20144;-76
2023/06/25 08:15:20;;;;;;;5.37;4.50;;;;;;;;;;6201416;28;20184;-76
2023/06/25 08:18:22;;;;;;;4.70;3.92;;;;;;;;;;6184321;28;20062;-76
2023/06/25 08:21:24;;;;;;;4.53;4.03;;;;;;;;;;6215684;28;20042;-76
2023/06/25 08:24:25;;;;;;;6.15;3.75;;;;;;;;;;6180500;28;20050;-76
2023/06/25 08:27:27;;;;;;;7.20;4.30;;;;;;;;;;6206649;28;20501;-76
2023/06/25 08:30:29;;;;;;;4.60;4.20;;;;;;;;;;6181796;28;20433;-77
2023/06/25 08:33:30;;;;;;;4.82;4.25;;;;;;;;;;6197868;28;20532;-77
2023/06/25 08:36:32;;;;;;;4.37;3.97;;;;;;;;;;6198634;28;20093;-76
2023/06/25 08:39:34;;;;;;;4.60;3.83;;;;;;;;;;6182431;28;20085;-77
2023/06/25 08:42:36;;;;;;;4.28;3.88;;;;;;;;;;6195604;28;20449;-76
2023/06/25 08:45:37;;;;;;;6.60;4.20;;;;;;;;;;6175621;28;20173;-76
2023/06/25 08:48:39;;;;;;;4.43;4.03;;;;;;;;;;6195235;28;20042;-78
2023/06/25 08:51:41;;;;;;;4.47;3.95;;;;;;;;;;6176828;28;20097;-78
2023/06/25 08:54:44;;;;;;;4.10;3.70;;;;;;;;;;6193236;28;20089;-77
2023/06/25 08:57:46;;;;;;;4.25;3.78;;;;;;;;;;6192776;28;20050;-79
2023/06/25 09:00:48;;;;;;;4.90;3.40;;;;;;;;;;6176251;28;20188;-77
2023/06/25 09:03:52;;;;;;;5.00;3.97;;;;;;;;;;6191078;28;20439;-77
2023/06/25 09:06:54;;;;;;;4.55;3.78;;;;;;;;;;6197018;28;20448;-77
2023/06/25 09:10:09;;;;;;;4.10;3.67;;;;;;;;;;6194700;28;20581;-77
2023/06/25 09:13:10;;;;;;;4.78;4.28;;;;;;;;;;6164595;28;20058;-77
2023/06/25 09:16:14;;;;;;;3.83;3.42;;;;;;;;;;6192400;28;20046;-78
2023/06/25 09:19:17;;;;;;;4.95;3.70;;;;;;;;;;6193504;28;20081;-78
2023/06/25 09:22:19;;;;;;;3.92;3.53;;;;;;;;;;6180093;28;20041;-78
2023/06/25 09:25:26;;;;;;;4.20;3.80;;;;;;;;;;6195344;28;20070;-78
2023/06/25 09:28:28;;;;;;;4.20;3.80;;;;;;;;;;6190193;28;20065;-77
2023/06/25 09:31:33;;;;;;;9.95;8.75;;;;;;;;;;6184873;28;20510;-77
2023/06/25 09:34:35;;;;;;;5.18;4.68;;;;;;;;;;6170304;28;20378;-78
2023/06/25 09:37:37;;;;;;;7.75;6.78;;;;;;;;;;6195584;28;20129;-78
2023/06/25 09:40:39;;;;;;;4.93;4.43;;;;;;;;;;6175327;28;20038;-79
2023/06/25 09:43:42;;;;;;;4.50;4.10;;;;;;;;;;6190130;28;20119;-82
2023/06/25 09:46:46;;;;;;;4.97;4.47;;;;;;;;;;6171801;28;20046;-81
2023/06/25 09:49:50;;;;;;;4.70;4.30;;;;;;;;;;6172648;28;20050;-81
2023/06/25 09:52:57;;;;;;;4.45;4.05;;;;;;;;;;6180684;28;20069;-81
2023/06/25 09:56:03;;;;;;;5.53;4.22;;;;;;;;;;6163587;28;20526;-78
2023/06/25 09:59:05;;;;;;;5.32;4.15;;;;;;;;;;6191245;28;20444;-80
2023/06/25 10:02:07;;;;;;;4.93;4.30;;;;;;;;;;6191621;28;20046;-81
2023/06/25 10:05:09;;;;;;;4.88;4.28;;;;;;;;;;6204034;28;20121;-78
2023/06/25 10:08:12;;;;;;;5.13;4.63;;;;;;;;;;6203145;28;20046;-78
2023/06/25 10:11:15;;;;;;;6.25;4.60;;;;;;;;;;6187239;28;20050;-77
2023/06/25 10:14:17;;;;;;;5.20;4.70;;;;;;;;;;6184820;28;20046;-77
2023/06/25 10:17:20;;;;;;;6.05;4.47;;;;;;;;;;6205953;28;20049;-77
2023/06/25 10:20:33;;;;;;;5.18;4.68;;;;;;;;;;6208249;28;20042;-77
2023/06/25 10:23:36;;;;;;;4.93;4.35;;;;;;;;;;6200368;28;20527;-77
2023/06/25 10:26:38;;;;;;;4.30;3.90;;;;;;;;;;6206074;28;20049;-76
2023/06/25 10:29:42;;;;;;;4.65;4.25;;;;;;;;;;6198888;28;20137;-76
2023/06/25 10:32:44;;;;;;;4.97;4.40;;;;;;;;;;6192697;28;20080;-77
2023/06/25 10:35:55;;;;;;;5.07;4.45;;;;;;;;;;6189407;28;20049;-79
2023/06/25 10:38:58;;;;;;;5.50;4.70;;;;;;;;;;6181169;28;20061;-79
2023/06/25 10:42:03;;;;;;;5.82;4.45;;;;;;;;;;6200654;28;20046;-80
2023/06/25 10:45:05;;;;;;;4.88;4.47;;;;;;;;;;6191855;28;20360;-81
2023/06/25 10:48:11;;;;;;;7.97;4.57;;;;;;;;;;6195115;28;20103;-78
2023/06/25 10:51:12;;;;;;;4.90;4.45;;;;;;;;;;6197003;28;20061;-79
2023/06/25 10:54:15;;;;;;;5.60;4.95;;;;;;;;;;6202157;28;20109;-80
2023/06/25 10:57:17;;;;;;;5.30;4.57;;;;;;;;;;6183768;28;20045;-80
2023/06/25 11:00:23;;;;;;;5.38;4.63;;;;;;;;;;6188754;28;20052;-81
2023/06/25 11:03:25;;;;;;;4.55;4.15;;;;;;;;;;6200202;28;20290;-83
2023/06/25 11:06:28;;;;;;;4.90;4.50;;;;;;;;;;6189230;28;20179;-81
2023/06/25 11:09:30;;;;;;;4.80;4.40;;;;;;;;;;6202494;28;20042;-82
2023/06/25 11:12:32;;;;;;;5.18;4.43;;;;;;;;;;6201516;28;20737;-81
2023/06/25 11:15:33;;;;;;;;;;;;;;;;;;6212805;28;20053;-83
2023/06/25 11:18:36;;;;;;;5.95;4.65;;;;;;;;;;6213381;28;19961;-83
2023/06/25 11:21:38;;;;;;;5.32;4.82;;;;;;;;;;6216229;28;20144;-83
2023/06/25 11:24:39;;;;;;;4.95;4.45;;;;;;;;;;6213885;28;20052;-83
2023/06/25 11:27:41;;;;;;;5.18;4.68;;;;;;;;;;6194188;28;20091;-83
2023/06/25 11:30:43;;;;;;;;;;;;;;;;;;6208367;28;20046;-83
2023/06/25 11:33:53;;;;;;;;;;;;;;;;;;6193671;28;19925;-83
2023/06/25 11:36:54;;;;;;;5.85;4.70;;;;;;;;;;6212043;28;19932;-83
2023/06/25 11:39:56;;;;;;;5.43;4.93;;;;;;;;;;6208117;28;20046;-78
2023/06/25 11:42:58;;;;;;;5.22;4.50;;;;;;;;;;6202247;28;20057;-79
2023/06/25 11:46:02;;;;;;;5.07;4.57;;;;;;;;;;6199472;28;20056;-81
2023/06/25 11:49:04;;;;;;;5.55;4.82;;;;;;;;;;6199126;28;20058;-83
2023/06/25 11:52:06;;;;;;;4.85;4.38;;;;;;;;;;6190760;28;20052;-83
2023/06/25 11:55:08;;;;;;;4.75;4.35;;;;;;;;;;6193686;28;20054;-84
2023/06/25 11:58:10;;;;;;;5.20;4.70;;;;;;;;;;6181980;28;20092;-84
2023/06/25 12:01:12;;;;;;;5.22;4.47;;;;;;;;;;6199145;28;20065;-84
2023/06/25 12:04:14;;;;;;;4.65;4.25;;;;;;;;;;6212986;28;20057;-84
2023/06/25 12:07:16;;;;;;;;;;;;;;;;;;6214634;28;20071;-83
2023/06/25 12:10:18;;;;;;;5.90;4.65;;;;;;;;;;6211708;28;19964;-82
2023/06/25 12:13:20;;;;;;;4.88;4.38;;;;;;;;;;6217763;28;20042;-82
2023/06/25 12:16:21;;;;;;;5.10;4.60;;;;;;;;;;6191176;28;20054;-81
2023/06/25 12:19:23;;;;;;;5.25;4.53;;;;;;;;;;6193783;28;20045;-82
2023/06/25 12:22:25;;;;;;;4.80;4.35;;;;;;;;;;6198547;28;20050;-82
2023/06/25 12:25:26;;;;;;;5.30;4.80;;;;;;;;;;6196631;28;20543;-82
2023/06/25 12:28:28;;;;;;;5.90;5.30;;;;;;;;;;6209518;28;20109;-81
2023/06/25 12:31:29;;;;;;;5.75;5.13;;;;;;;;;;6188734;28;20340;-82
2023/06/25 12:34:31;;;;;;;4.82;4.43;;;;;;;;;;6189910;28;20054;-82
2023/06/25 12:37:33;;;;;;;5.07;4.65;;;;;;;;;;6195180;28;20100;-82
2023/06/25 12:40:34;;;;;;;4.88;4.45;;;;;;;;;;6195639;28;20054;-82
2023/06/25 12:43:36;;;;;;;5.13;4.70;;;;;;;;;;6176972;28;20579;-83
2023/06/25 12:46:38;;;;;;;6.32;4.45;;;;;;;;;;6197450;28;20053;-82
2023/06/25 12:49:39;;;;;;;5.32;4.40;;;;;;;;;;6190262;28;20058;-82
2023/06/25 12:52:41;;;;;;;5.45;4.43;;;;;;;;;;6174220;28;20066;-81
2023/06/25 12:55:43;;;;;;;5.05;4.47;;;;;;;;;;6203661;28;20056;-82
2023/06/25 12:58:44;;;;;;;4.80;4.32;;;;;;;;;;6182778;28;20073;-82
2023/06/25 13:01:46;;;;;;;4.88;4.28;;;;;;;;;;6178856;28;20109;-81
2023/06/25 13:04:48;;;;;;;4.97;4.50;;;;;;;;;;6187173;28;20064;-81
2023/06/25 13:07:49;;;;;;;4.25;3.88;;;;;;;;;;6192987;28;20054;-81
2023/06/25 13:10:52;;;;;;;6.07;4.80;;;;;;;;;;6183445;28;20086;-80
2023/06/25 13:13:53;;;;;;;5.63;4.57;;;;;;;;;;6187057;28;20042;-79
2023/06/25 13:16:56;;;;;;;4.82;4.43;;;;;;;;;;6199748;28;20109;-79
2023/06/25 13:19:57;;;;;;;;;;;;;;;;;;6200394;28;20140;-79
2023/06/25 13:22:59;;;;;;;4.90;4.40;;;;;;;;;;6197505;28;20451;-79
2023/06/25 13:26:00;;;;;;;4.78;4.38;;;;;;;;;;6198523;28;20061;-83
2023/06/25 13:29:02;;;;;;;4.80;4.40;;;;;;;;;;6178434;28;20046;-83
2023/06/25 13:32:04;;;;;;;;;;;;;;;;;;6178574;28;20504;-83
2023/06/25 13:35:06;;;;;;;5.00;4.60;;;;;;;;;;6191153;28;19925;-82
2023/06/25 13:38:07;;;;;;;5.32;4.05;;;;;;;;;;6181801;28;20512;-84
2023/06/25 13:41:09;;;;;;;5.13;4.70;;;;;;;;;;6205136;28;20073;-81
2023/06/25 13:44:11;;;;;;;4.70;4.32;;;;;;;;;;6181334;28;20177;-80
2023/06/25 13:47:13;;;;;;;;;;;;;;;;;;6199600;28;20073;-80
2023/06/25 13:50:17;;;;;;;4.85;4.35;;;;;;;;;;6204774;28;19968;-80
2023/06/25 13:53:19;;;;;;;4.88;4.40;;;;;;;;;;6188251;28;20046;-80
2023/06/25 13:56:20;;;;;;;4.82;4.20;;;;;;;;;;6196523;28;20030;-82
2023/06/25 13:59:22;;;;;;;;;;;;;;;;;;6199903;28;20091;-83
2023/06/25 14:02:24;;;;;;;5.32;4.13;;;;;;;;;;6186201;28;19925;-81
2023/06/25 14:05:26;;;;;;;4.40;4.00;;;;;;;;;;6194534;28;20041;-79
2023/06/25 14:08:28;;;;;;;5.05;4.53;;;;;;;;;;6211093;28;20504;-80
2023/06/25 14:11:29;;;;;;;5.00;4.60;;;;;;;;;;6207468;28;20538;-82
2023/06/25 14:14:31;;;;;;;4.50;4.20;;;;;;;;;;6208310;28;20054;-80
2023/06/25 14:17:33;;;;;;;5.03;4.63;;;;;;;;;;6196656;28;20050;-80
2023/06/25 14:20:34;;;;;;;4.82;4.43;;;;;;;;;;6192082;28;20046;-81
2023/06/25 14:23:36;;;;;;;4.50;4.00;;;;;;;;;;6200718;28;20033;-80
2023/06/25 14:26:38;;;;;;;4.45;4.05;;;;;;;;;;6206016;28;20053;-82
2023/06/25 14:29:40;;;;;;;5.93;4.40;;;;;;;;;;6187538;28;20049;-81
2023/06/25 14:32:42;;;;;;;5.05;4.35;;;;;;;;;;6204873;28;20050;-80
2023/06/25 14:35:43;;;;;;;4.60;4.20;;;;;;;;;;6197562;28;20037;-79
2023/06/25 14:38:45;;;;;;;4.75;4.25;;;;;;;;;;6202780;28;20054;-80
2023/06/25 14:41:47;;;;;;;5.53;4.10;;;;;;;;;;6200878;28;20054;-80
2023/06/25 14:44:48;;;;;;;5.18;4.68;;;;;;;;;;6190721;28;20038;-79
2023/06/25 14:47:50;;;;;;;4.53;4.13;;;;;;;;;;6192914;28;20143;-81
2023/06/25 14:50:52;;;;;;;4.63;4.22;;;;;;;;;;6208077;28;20046;-83
2023/06/25 14:53:54;;;;;;;;;;;;;;;;;;6189071;28;20049;-79
2023/06/25 14:56:55;;;;;;;4.68;4.00;;;;;;;;;;6201517;28;19952;-80
2023/06/25 14:59:57;;;;;;;;;;;;;;;;;;6206752;28;20144;-80
2023/06/25 15:02:59;;;;;;;4.50;4.10;;;;;;;;;;6202165;28;19928;-79
2023/06/25 15:06:01;;;;;;;4.40;3.90;;;;;;;;;;6197828;28;20144;-80
2023/06/25 15:09:14;;;;;;;4.85;4.45;;;;;;;;;;6181299;28;20053;-78
2023/06/25 15:12:15;;;;;;;4.78;4.35;;;;;;;;;;6188331;28;20599;-80
2023/06/25 15:15:17;;;;;;;;;;;;;;;;;;6195460;28;20046;-80
2023/06/25 15:18:19;;;;;;;6.60;4.20;;;;;;;;;;6201213;28;20039;-78
2023/06/25 15:21:20;;;;;;;4.80;4.30;;;;;;;;;;6205286;28;20149;-79
2023/06/25 15:24:22;;;;;;;4.60;4.20;;;;;;;;;;6198225;28;20061;-79
2023/06/25 15:27:24;;;;;;;5.00;4.50;;;;;;;;;;6189308;28;20038;-79
2023/06/25 15:30:26;;;;;;;;;;;;;;;;;;6204289;28;20511;-81
2023/06/25 15:33:27;;;;;;;;;;;;;;;;;;6203846;28;19928;-81
2023/06/25 15:36:29;;;;;;;5.10;4.70;;;;;;;;;;6183984;28;19933;-81
2023/06/25 15:39:31;;;;;;;4.90;4.50;;;;;;;;;;6201344;28;20452;-81
2023/06/25 15:42:33;;;;;;;;;;;;;;;;;;6203795;28;20483;-82
2023/06/25 15:45:38;;;;;;;5.00;4.60;;;;;;;;;;6173052;28;20009;-81
2023/06/25 15:48:40;;;;;;;5.07;4.65;;;;;;;;;;6205297;28;20058;-81
2023/06/25 15:51:43;;;;;;;4.35;3.95;;;;;;;;;;6183750;28;20042;-82
2023/06/25 15:54:48;;;;;;;4.43;4.03;;;;;;;;;;6174429;28;20042;-80
2023/06/25 15:57:51;;;;;;;4.90;4.40;;;;;;;;;;6183213;28;20057;-81
2023/06/25 16:00:52;;;;;;;6.00;4.45;;;;;;;;;;6189953;28;20124;-81
2023/06/25 16:03:55;;;;;;;5.45;4.70;;;;;;;;;;6206850;28;20046;-82
2023/06/25 16:06:56;;;;;;;;;;;;;;;;;;6188826;28;20532;-82
2023/06/25 16:09:58;;;;;;;4.93;4.53;;;;;;;;;;6188275;28;20410;-82
2023/06/25 16:13:00;;;;;;;4.72;4.32;;;;;;;;;;6191312;28;20057;-80
2023/06/25 16:16:01;;;;;;;4.78;4.38;;;;;;;;;;6199829;28;20435;-79
2023/06/25 16:19:03;;;;;;;4.95;4.47;;;;;;;;;;6195979;28;20135;-78
2023/06/25 16:22:25;;;;;;;4.90;4.50;;;;;;;;;;6192632;28;20539;-77
2023/06/25 16:25:26;;;;;;;5.18;4.50;;;;;;;;;;6212789;28;20061;-81
2023/06/25 16:28:28;;;;;;;5.88;4.47;;;;;;;;;;6206340;28;20042;-80
2023/06/25 16:31:30;;;;;;;4.70;4.20;;;;;;;;;;6202111;28;20057;-83
2023/06/25 16:34:34;;;;;;;;;;;;;;;;;;6190330;28;20096;-81
2023/06/25 16:37:37;;;;;;;5.78;4.78;;;;;;;;;;6184911;28;20000;-78
2023/06/25 16:40:39;;;;;;;5.57;4.57;;;;;;;;;;6181333;28;20128;-80
2023/06/25 16:43:41;;;;;;;4.80;4.38;;;;;;;;;;6201853;28;20049;-78
2023/06/25 16:46:42;;;;;;;4.53;4.10;;;;;;;;;;6194645;28;20427;-76
2023/06/25 16:49:44;;;;;;;4.85;4.40;;;;;;;;;;6202012;28;20427;-77
2023/06/25 16:52:46;;;;;;;4.97;4.50;;;;;;;;;;6186762;28;20053;-78
2023/06/25 16:55:48;;;;;;;4.72;4.32;;;;;;;;;;6203426;28;20054;-77
2023/06/25 16:58:49;;;;;;;4.75;4.20;;;;;;;;;;6211923;28;20461;-83
2023/06/25 17:01:51;;;;;;;5.70;4.53;;;;;;;;;;6202725;28;20046;-83
2023/06/25 17:04:53;;;;;;;;;;;;;;;;;;6204388;28;20041;-81
2023/06/25 17:07:55;;;;;;;5.00;4.20;;;;;;;;;;6178772;28;19994;-80
2023/06/25 17:10:56;;;;;;;6.25;4.15;;;;;;;;;;6190916;28;20511;-82
2023/06/25 17:13:58;;;;;;;4.60;4.13;;;;;;;;;;6203124;28;20054;-81
2023/06/25 17:16:59;;;;;;;4.65;4.20;;;;;;;;;;6209617;28;20151;-82
2023/06/25 17:20:01;;;;;;;5.53;4.25;;;;;;;;;;6210716;28;20054;-83
2023/06/25 17:23:04;;;;;;;;;;;;;;;;;;6208828;28;20133;-79
2023/06/25 17:26:07;;;;;;;4.70;4.30;;;;;;;;;;6205824;28;19921;-79
2023/06/25 17:29:09;;;;;;;6.00;4.00;;;;;;;;;;6202854;28;20047;-80
2023/06/25 17:32:11;;;;;;;4.80;3.95;;;;;;;;;;6185736;28;20048;-79
2023/06/25 17:35:13;;;;;;;5.20;4.25;;;;;;;;;;6204622;28;20551;-79
2023/06/25 17:38:14;;;;;;;5.60;4.82;;;;;;;;;;6190574;28;20093;-80
2023/06/25 17:41:16;;;;;;;5.05;4.05;;;;;;;;;;6206181;28;20064;-82
2023/06/25 17:44:18;;;;;;;4.72;4.20;;;;;;;;;;6192936;28;20038;-81
2023/06/25 17:47:19;;;;;;;4.90;4.40;;;;;;;;;;6210923;28;20121;-81
2023/06/25 17:50:21;;;;;;;5.53;4.45;;;;;;;;;;6207609;28;20066;-81
2023/06/25 17:53:23;;;;;;;4.72;4.28;;;;;;;;;;6189737;28;20038;-81
2023/06/25 17:56:26;;;;;;;4.65;4.15;;;;;;;;;;6216603;28;20163;-81
2023/06/25 17:59:27;;;;;;;4.85;4.32;;;;;;;;;;6186755;28;20081;-82
2023/06/25 18:02:29;;;;;;;5.10;4.57;;;;;;;;;;6212984;28;20042;-81
2023/06/25 18:05:31;;;;;;;5.40;4.82;;;;;;;;;;6195943;28;20381;-81
2023/06/25 18:08:33;;;;;;;5.05;4.55;;;;;;;;;;6194428;28;20140;-81
2023/06/25 18:11:34;;;;;;;5.22;4.60;;;;;;;;;;6194995;28;20082;-82
2023/06/25 18:14:36;;;;;;;5.43;4.80;;;;;;;;;;6197174;28;20106;-82
2023/06/25 18:17:40;;;;;;;4.95;4.30;;;;;;;;;;6209675;28;20049;-80